Time;durP1;ratioP1;P1;durP2;ratioP2;P2;SDS_P1;SDS_P2;PMS_P1;PMS_P2;Temp;Humidity;BMP_temperature;BMP_pressure;BME280_temperature;BME280_humidity;BME280_pressure;Samples;Min_cycle;Max_cycle;Signal;HPM_P1;HPM_P2
2023/09/08 00:01:52;;;;;;;14.25;10.73;;;21.20;99.90;;;;;;5106999;28;20488;-68
2023/09/08 00:04:20;;;;;;;14.43;9.98;;;21.20;99.90;;;;;;5104654;28;20020;-68
2023/09/08 00:06:46;;;;;;;16.52;11.00;;;21.10;99.90;;;;;;5105238;28;20529;-67
2023/09/08 00:09:12;;;;;;;16.67;10.82;;;21.20;99.90;;;;;;5095899;28;20060;-68
2023/09/08 00:11:37;;;;;;;16.92;11.10;;;21.10;99.90;;;;;;5107265;28;20024;-68
2023/09/08 00:14:05;;;;;;;16.52;10.80;;;21.10;99.90;;;;;;5115953;28;20023;-68
2023/09/08 00:16:30;;;;;;;17.40;10.70;;;21.00;99.90;;;;;;5116494;28;20019;-67
2023/09/08 00:18:58;;;;;;;18.23;11.20;;;21.00;99.90;;;;;;5116164;28;20034;-68
2023/09/08 00:21:24;;;;;;;18.75;11.13;;;20.90;99.90;;;;;;5115884;28;20046;-67
2023/09/08 00:23:50;;;;;;;15.82;10.50;;;20.80;99.90;;;;;;5111567;28;20039;-69
2023/09/08 00:26:15;;;;;;;14.65;10.52;;;20.70;99.90;;;;;;5099528;28;20031;-68
2023/09/08 00:28:41;;;;;;;17.10;11.68;;;20.70;99.90;;;;;;5114944;28;20429;-68
2023/09/08 00:31:06;;;;;;;17.48;12.13;;;20.60;99.90;;;;;;5108922;28;20468;-67
2023/09/08 00:33:32;;;;;;;27.92;13.18;;;20.50;99.90;;;;;;5103183;28;20024;-68
2023/09/08 00:35:58;;;;;;;16.70;11.95;;;20.50;99.90;;;;;;5110782;28;20027;-66
2023/09/08 00:38:24;;;;;;;16.85;12.05;;;20.50;99.90;;;;;;5116670;28;20538;-68
2023/09/08 00:40:49;;;;;;;17.27;11.38;;;20.40;99.90;;;;;;5116650;28;20111;-67
2023/09/08 00:43:16;;;;;;;17.80;11.60;;;20.40;99.90;;;;;;5116398;28;20077;-68
2023/09/08 00:45:43;;;;;;;16.88;10.65;;;20.50;99.90;;;;;;5116315;28;20463;-70
2023/09/08 00:48:09;;;;;;;16.40;11.02;;;20.50;99.90;;;;;;5115635;28;20036;-68
2023/09/08 00:50:36;;;;;;;16.13;10.27;;;20.50;99.90;;;;;;5116739;27;20031;-68
2023/09/08 00:53:06;;;;;;;17.48;11.15;;;20.50;99.90;;;;;;5111071;28;20023;-69
2023/09/08 00:55:32;;;;;;;17.13;10.98;;;20.50;99.90;;;;;;5115935;28;20028;-69
2023/09/08 00:57:58;;;;;;;18.08;11.43;;;20.60;99.90;;;;;;5114951;28;20023;-68
2023/09/08 01:00:25;;;;;;;17.77;11.10;;;20.60;99.90;;;;;;5115829;28;20024;-69
2023/09/08 01:02:50;;;;;;;15.60;10.77;;;20.60;99.90;;;;;;5116235;28;20046;-68
2023/09/08 01:05:16;;;;;;;15.68;11.43;;;20.60;99.90;;;;;;5115651;28;21719;-68
2023/09/08 01:07:43;;;;;;;17.88;10.80;;;20.60;99.90;;;;;;5116078;28;20031;-70
2023/09/08 01:10:09;;;;;;;19.15;11.07;;;20.70;99.90;;;;;;5109877;28;20131;-68
2023/09/08 01:12:35;;;;;;;17.33;11.52;;;20.70;99.90;;;;;;5095790;28;20024;-68
2023/09/08 01:15:05;;;;;;;17.98;11.30;;;20.60;99.90;;;;;;5095302;28;20039;-69
2023/09/08 01:17:30;;;;;;;16.73;10.75;;;20.60;99.90;;;;;;5095338;28;20049;-68
2023/09/08 01:19:58;;;;;;;17.98;12.13;;;20.60;99.90;;;;;;5095324;28;20024;-68
2023/09/08 01:22:47;;;;;;;16.00;11.32;;;20.60;99.90;;;;;;5097172;28;20038;-67
2023/09/08 01:25:24;;;;;;;17.25;11.45;;;20.60;99.90;;;;;;5115893;28;20027;-69
2023/09/08 01:27:54;;;;;;;14.80;11.07;;;20.50;99.90;;;;;;5110341;27;20050;-68
2023/09/08 01:30:25;;;;;;;17.90;12.60;;;20.50;99.90;;;;;;5113718;28;20031;-68
2023/09/08 01:32:52;;;;;;;16.63;11.23;;;20.50;99.90;;;;;;5115838;28;20056;-68
2023/09/08 01:35:17;;;;;;;17.70;12.38;;;20.50;99.90;;;;;;5113980;28;20439;-68
2023/09/08 01:37:48;;;;;;;17.40;12.55;;;20.40;99.90;;;;;;5115500;28;20106;-68
2023/09/08 01:40:14;;;;;;;23.17;12.50;;;20.40;99.90;;;;;;5115033;28;20039;-67
2023/09/08 01:42:41;;;;;;;18.23;12.25;;;20.40;99.90;;;;;;5115433;28;20046;-67
2023/09/08 01:45:08;;;;;;;18.75;12.80;;;20.40;99.90;;;;;;5109932;28;20036;-68
2023/09/08 01:47:34;;;;;;;18.02;13.15;;;20.40;99.90;;;;;;5098839;28;20399;-68
2023/09/08 01:49:59;;;;;;;20.13;12.75;;;20.30;99.90;;;;;;5094784;28;20024;-67
2023/09/08 01:52:25;;;;;;;17.85;12.63;;;20.30;99.90;;;;;;5097195;28;20502;-68
2023/09/08 01:54:51;;;;;;;16.63;12.25;;;20.30;99.90;;;;;;5092791;28;20134;-67
2023/09/08 01:57:17;;;;;;;18.52;12.80;;;20.30;99.90;;;;;;5106108;28;20026;-67
2023/09/08 01:59:44;;;;;;;18.40;13.15;;;20.20;99.90;;;;;;5114134;28;20062;-69
2023/09/08 02:02:10;;;;;;;18.33;13.07;;;20.30;99.90;;;;;;5101514;28;20036;-67
2023/09/08 02:04:36;;;;;;;22.65;13.27;;;20.20;99.90;;;;;;5094950;28;20054;-68
2023/09/08 02:07:03;;;;;;;19.67;13.73;;;20.20;99.90;;;;;;5100546;28;20118;-68
2023/09/08 02:09:36;;;;;;;20.70;13.60;;;20.20;99.90;;;;;;5114432;28;20047;-67
2023/09/08 02:12:03;;;;;;;19.70;14.02;;;20.20;99.90;;;;;;5109602;28;20047;-68
2023/09/08 02:14:29;;;;;;;21.52;14.13;;;20.20;99.90;;;;;;5113577;28;20023;-67
2023/09/08 02:16:55;;;;;;;19.75;14.00;;;20.20;99.90;;;;;;5111947;28;20416;-67
2023/09/08 02:19:21;;;;;;;20.60;13.65;;;20.10;99.90;;;;;;5113121;28;20517;-68
2023/09/08 02:21:46;;;;;;;19.13;13.02;;;20.10;99.90;;;;;;5114419;28;20028;-69
2023/09/08 02:24:12;;;;;;;19.55;14.38;;;20.00;99.90;;;;;;5113397;28;20155;-69
2023/09/08 02:26:39;;;;;;;18.55;13.65;;;20.00;99.90;;;;;;5105678;28;20028;-69
2023/09/08 02:29:05;;;;;;;20.23;13.95;;;20.00;99.90;;;;;;5093881;28;20040;-67
2023/09/08 02:31:30;;;;;;;18.55;13.90;;;20.00;99.90;;;;;;5102917;28;20101;-67
2023/09/08 02:33:56;;;;;;;18.75;13.43;;;20.00;99.90;;;;;;5114209;28;20358;-69
2023/09/08 02:36:25;;;;;;;20.42;14.13;;;20.00;99.90;;;;;;5113902;28;20028;-66
2023/09/08 02:38:56;;;;;;;20.08;14.40;;;20.00;99.90;;;;;;5109236;28;20032;-69
2023/09/08 02:41:23;;;;;;;20.10;14.95;;;19.90;99.90;;;;;;5114281;28;20031;-68
2023/09/08 02:43:49;;;;;;;20.58;14.57;;;19.90;99.90;;;;;;5114074;28;20035;-67
2023/09/08 02:46:15;;;;;;;22.63;16.00;;;19.90;99.90;;;;;;5114057;28;20027;-69
2023/09/08 02:48:40;;;;;;;19.88;14.98;;;19.90;99.90;;;;;;5113471;28;20089;-70
2023/09/08 02:51:06;;;;;;;20.38;15.27;;;19.80;99.90;;;;;;5109788;28;20065;-68
2023/09/08 02:53:32;;;;;;;21.23;15.65;;;19.80;99.90;;;;;;5114182;28;20111;-69
2023/09/08 02:55:58;;;;;;;21.50;14.77;;;19.80;99.90;;;;;;5109041;28;20039;-68
2023/09/08 02:58:24;;;;;;;21.52;15.75;;;19.80;99.90;;;;;;5093384;28;20391;-68
2023/09/08 03:00:51;;;;;;;24.52;15.80;;;19.70;99.90;;;;;;5093680;28;20036;-67
2023/09/08 03:03:17;;;;;;;21.17;15.38;;;19.70;99.90;;;;;;5093811;28;20165;-69
2023/09/08 03:05:43;;;;;;;21.02;15.32;;;19.70;99.90;;;;;;5099776;28;20034;-68
2023/09/08 03:08:09;;;;;;;20.67;15.60;;;19.60;99.90;;;;;;5113788;28;20055;-68
2023/09/08 03:10:34;;;;;;;23.77;16.17;;;19.60;99.90;;;;;;5114168;28;20066;-67
2023/09/08 03:13:00;;;;;;;23.02;16.42;;;19.60;99.90;;;;;;5108159;28;20077;-68
2023/09/08 03:15:27;;;;;;;22.70;16.63;;;19.60;99.90;;;;;;5093411;28;20028;-69
2023/09/08 03:17:54;;;;;;;24.38;16.67;;;19.60;99.90;;;;;;5093396;28;20016;-69
2023/09/08 03:20:20;;;;;;;23.42;17.48;;;19.50;99.90;;;;;;5092294;28;20134;-68
2023/09/08 03:22:46;;;;;;;23.52;17.00;;;19.50;99.90;;;;;;5096244;28;20111;-68
2023/09/08 03:25:14;;;;;;;22.52;16.48;;;19.50;99.90;;;;;;5093121;28;20039;-69
2023/09/08 03:27:39;;;;;;;24.73;17.23;;;19.50;99.90;;;;;;5108691;28;20047;-69
2023/09/08 03:30:05;;;;;;;23.98;16.42;;;19.50;99.90;;;;;;5113378;28;20112;-69
2023/09/08 03:32:31;;;;;;;23.48;16.95;;;19.50;99.90;;;;;;5108289;28;20107;-66
2023/09/08 03:34:57;;;;;;;24.92;17.23;;;19.50;99.90;;;;;;5112765;28;20435;-69
2023/09/08 03:37:23;;;;;;;23.35;17.60;;;19.40;99.90;;;;;;5111954;28;20383;-67
2023/09/08 03:39:48;;;;;;;23.23;17.63;;;19.40;99.90;;;;;;5112323;28;20383;-68
2023/09/08 03:42:14;;;;;;;22.30;16.25;;;19.40;99.90;;;;;;5113379;28;20062;-69
2023/09/08 03:44:39;;;;;;;21.20;16.63;;;19.40;99.90;;;;;;5113605;28;20106;-69
2023/09/08 03:47:05;;;;;;;24.95;17.38;;;19.40;99.90;;;;;;5113953;28;20119;-67
2023/09/08 03:49:31;;;;;;;21.90;16.83;;;19.40;99.90;;;;;;5112028;28;20063;-67
2023/09/08 03:51:58;;;;;;;26.33;18.25;;;19.30;99.90;;;;;;5113119;28;20454;-69
2023/09/08 03:54:23;;;;;;;21.92;17.70;;;19.30;99.90;;;;;;5112615;28;20032;-66
2023/09/08 03:56:49;;;;;;;26.08;18.58;;;19.30;99.90;;;;;;5112523;28;20161;-66
2023/09/08 03:59:14;;;;;;;25.88;18.27;;;19.20;99.90;;;;;;5108190;28;20097;-66
2023/09/08 04:01:40;;;;;;;22.90;17.77;;;19.20;99.90;;;;;;5113307;28;20019;-68
2023/09/08 04:04:05;;;;;;;25.83;19.02;;;19.20;99.90;;;;;;5113241;28;20422;-68
2023/09/08 04:06:31;;;;;;;24.65;18.35;;;19.20;99.90;;;;;;5113279;28;20552;-69
2023/09/08 04:08:56;;;;;;;22.90;17.95;;;19.20;99.90;;;;;;5112030;28;20120;-67
2023/09/08 04:11:22;;;;;;;24.13;18.70;;;19.20;99.90;;;;;;5102216;28;20024;-69
2023/09/08 04:13:48;;;;;;;26.73;19.65;;;19.20;99.90;;;;;;5103051;28;20024;-67
2023/09/08 04:16:13;;;;;;;25.92;20.02;;;19.20;99.90;;;;;;5102089;28;20073;-68
2023/09/08 04:18:39;;;;;;;26.90;19.85;;;19.10;99.90;;;;;;5103403;28;20032;-68
2023/09/08 04:21:07;;;;;;;26.90;19.85;;;19.20;99.90;;;;;;5102716;28;20096;-66
2023/09/08 04:23:32;;;;;;;30.15;21.17;;;19.10;99.90;;;;;;5101569;28;20016;-69
2023/09/08 04:25:58;;;;;;;28.02;20.90;;;19.10;99.90;;;;;;5101806;28;20024;-67
2023/09/08 04:28:23;;;;;;;28.45;21.30;;;19.10;99.90;;;;;;5104078;28;20057;-69
2023/09/08 04:30:49;;;;;;;28.55;21.25;;;19.10;99.90;;;;;;5101805;28;20031;-69
2023/09/08 04:33:14;;;;;;;27.95;21.25;;;19.10;99.90;;;;;;5106661;28;20024;-68
2023/09/08 04:35:40;;;;;;;27.13;21.05;;;19.10;99.90;;;;;;5105096;28;20020;-67
2023/09/08 04:38:06;;;;;;;27.70;21.40;;;19.00;99.90;;;;;;5102868;28;20020;-68
2023/09/08 04:40:31;;;;;;;28.08;20.80;;;19.00;99.90;;;;;;5107103;28;20028;-68
2023/09/08 04:42:57;;;;;;;26.88;20.75;;;19.00;99.90;;;;;;5109158;28;20019;-68
2023/09/08 04:45:22;;;;;;;28.20;21.63;;;19.00;99.90;;;;;;5107818;28;20099;-67
2023/09/08 04:47:49;;;;;;;24.67;20.85;;;19.00;99.90;;;;;;5106448;28;20032;-66
2023/09/08 04:50:15;;;;;;;28.08;21.38;;;19.00;99.90;;;;;;5106942;28;20103;-67
2023/09/08 04:52:40;;;;;;;27.50;21.92;;;18.90;99.90;;;;;;5105670;28;20524;-70
2023/09/08 04:55:07;;;;;;;29.27;21.08;;;18.90;99.90;;;;;;5109403;28;20142;-67
2023/09/08 04:57:32;;;;;;;26.65;20.70;;;18.90;99.90;;;;;;5104832;28;20085;-66
2023/09/08 04:59:58;;;;;;;26.27;20.60;;;18.90;99.90;;;;;;5106422;28;20102;-66
2023/09/08 05:02:23;;;;;;;28.75;21.92;;;18.90;99.90;;;;;;5105911;28;20105;-67
2023/09/08 05:04:49;;;;;;;27.58;21.45;;;18.90;99.90;;;;;;5104843;28;20035;-67
2023/09/08 05:07:14;;;;;;;28.45;21.10;;;18.90;99.90;;;;;;5107873;28;20024;-67
2023/09/08 05:09:41;;;;;;;30.02;21.92;;;18.90;99.90;;;;;;5106328;28;20043;-68
2023/09/08 05:12:07;;;;;;;29.08;21.15;;;18.90;99.90;;;;;;5105694;28;20030;-67
2023/09/08 05:14:32;;;;;;;29.42;21.65;;;18.90;99.90;;;;;;5106094;28;20102;-67
2023/09/08 05:16:58;;;;;;;29.75;21.80;;;18.90;99.90;;;;;;5104510;28;20012;-68
2023/09/08 05:19:23;;;;;;;31.58;22.00;;;18.90;99.90;;;;;;5105486;28;20019;-66
2023/09/08 05:21:54;;;;;;;26.67;21.15;;;18.90;99.90;;;;;;5106718;28;20115;-66
2023/09/08 05:24:20;;;;;;;28.40;21.13;;;18.90;99.90;;;;;;5104488;28;20103;-66
2023/09/08 05:26:46;;;;;;;26.13;19.98;;;18.90;99.90;;;;;;5107216;28;20090;-68
2023/09/08 05:29:12;;;;;;;26.20;20.25;;;18.90;99.90;;;;;;5104108;28;20476;-67
2023/09/08 05:31:37;;;;;;;27.50;20.48;;;18.90;99.90;;;;;;5103923;28;20019;-67
2023/09/08 05:34:03;;;;;;;30.25;22.48;;;18.90;99.90;;;;;;5114317;28;20027;-67
2023/09/08 05:36:29;;;;;;;27.05;20.65;;;19.00;99.90;;;;;;5114808;28;20027;-67
2023/09/08 05:38:55;;;;;;;25.00;20.02;;;19.00;99.90;;;;;;5099882;28;20040;-67
2023/09/08 05:41:21;;;;;;;27.35;19.95;;;19.00;99.90;;;;;;5094798;28;20028;-68
2023/09/08 05:43:47;;;;;;;26.85;19.38;;;19.00;99.90;;;;;;5103612;28;20034;-66
2023/09/08 05:46:12;;;;;;;28.42;21.45;;;19.10;99.90;;;;;;5114903;28;20476;-68
2023/09/08 05:48:38;;;;;;;29.65;20.75;;;19.10;99.90;;;;;;5115190;28;20065;-66
2023/09/08 05:51:05;;;;;;;27.42;19.70;;;19.10;99.90;;;;;;5114884;28;20081;-67
2023/09/08 05:53:31;;;;;;;25.25;20.00;;;19.20;99.90;;;;;;5112039;28;20023;-68
2023/09/08 05:55:56;;;;;;;26.40;20.20;;;19.20;99.90;;;;;;5115852;28;20032;-67
2023/09/08 05:58:24;;;;;;;23.95;19.30;;;19.30;99.90;;;;;;5115478;28;20080;-68
2023/09/08 06:00:49;;;;;;;25.52;19.20;;;19.30;99.90;;;;;;5115061;28;20111;-67
2023/09/08 06:03:15;;;;;;;26.20;19.33;;;19.40;99.90;;;;;;5115030;28;20052;-68
2023/09/08 06:05:40;;;;;;;28.60;20.15;;;19.40;99.90;;;;;;5114995;28;20032;-67
2023/09/08 06:08:06;;;;;;;24.75;19.58;;;19.50;99.90;;;;;;5114725;28;20494;-68
2023/09/08 06:10:32;;;;;;;26.13;19.17;;;19.60;99.90;;;;;;5114533;28;20437;-67
2023/09/08 06:12:57;;;;;;;25.95;20.45;;;19.60;99.90;;;;;;5113196;28;20063;-67
2023/09/08 06:15:23;;;;;;;25.02;19.30;;;19.70;99.90;;;;;;5115261;28;20037;-67
2023/09/08 06:17:48;;;;;;;28.52;19.60;;;19.70;99.90;;;;;;5114659;28;20027;-68
2023/09/08 06:20:16;;;;;;;26.67;20.25;;;19.80;99.90;;;;;;5114266;28;20416;-68
2023/09/08 06:22:41;;;;;;;27.55;20.90;;;19.80;99.90;;;;;;5113952;28;20020;-67
2023/09/08 06:25:07;;;;;;;28.80;20.15;;;19.90;99.90;;;;;;5114624;28;20027;-68
2023/09/08 06:27:33;;;;;;;25.92;18.77;;;20.00;99.90;;;;;;5114149;28;20032;-67
2023/09/08 06:29:58;;;;;;;26.55;19.30;;;20.10;99.90;;;;;;5114289;28;20039;-67
2023/09/08 06:32:24;;;;;;;25.75;18.58;;;20.10;99.90;;;;;;5113277;28;20094;-66
2023/09/08 06:34:49;;;;;;;26.60;19.52;;;20.20;99.90;;;;;;5114412;28;20038;-68
2023/09/08 06:37:15;;;;;;;26.70;18.27;;;20.30;99.90;;;;;;5109043;28;20020;-69
2023/09/08 06:39:41;;;;;;;23.95;18.63;;;20.40;99.90;;;;;;5099061;28;20024;-68
2023/09/08 06:42:06;;;;;;;27.38;19.13;;;20.50;99.90;;;;;;5111351;28;20139;-68
2023/09/08 06:44:32;;;;;;;28.02;18.98;;;20.60;99.90;;;;;;5111279;28;20028;-68
2023/09/08 06:46:57;;;;;;;28.92;19.80;;;20.60;99.90;;;;;;5101937;28;20042;-68
2023/09/08 06:49:23;;;;;;;25.05;18.70;;;20.70;99.90;;;;;;5107438;28;20543;-68
2023/09/08 06:51:48;;;;;;;26.83;19.50;;;20.80;99.90;;;;;;5095142;28;20472;-68
2023/09/08 06:54:14;;;;;;;28.27;20.25;;;20.90;99.90;;;;;;5107691;28;20483;-67
2023/09/08 06:56:40;;;;;;;25.85;19.45;;;21.00;99.90;;;;;;5100789;28;20033;-67
2023/09/08 06:59:05;;;;;;;26.52;19.52;;;21.10;99.90;;;;;;5102376;28;20084;-67
2023/09/08 07:01:31;;;;;;;25.25;19.27;;;21.20;99.90;;;;;;5096150;28;20023;-67
2023/09/08 07:03:56;;;;;;;26.67;19.42;;;21.30;99.90;;;;;;5108532;28;20024;-68
2023/09/08 07:06:22;;;;;;;26.52;19.02;;;21.40;99.90;;;;;;5099340;28;20016;-68
2023/09/08 07:08:50;;;;;;;23.17;18.40;;;21.50;99.90;;;;;;5106097;28;20048;-68
2023/09/08 07:11:16;;;;;;;25.92;18.58;;;21.70;99.90;;;;;;5098464;28;20028;-68
2023/09/08 07:13:41;;;;;;;27.30;18.98;;;21.80;99.90;;;;;;5109406;28;20424;-69
2023/09/08 07:16:08;;;;;;;24.88;19.42;;;21.90;99.90;;;;;;5107485;28;20140;-68
2023/09/08 07:18:35;;;;;;;25.38;19.35;;;22.10;99.90;;;;;;5103981;28;20048;-68
2023/09/08 07:21:02;;;;;;;29.48;19.27;;;22.30;99.90;;;;;;5103797;28;20044;-68
2023/09/08 07:23:27;;;;;;;29.33;18.80;;;22.60;99.90;;;;;;5108057;28;20075;-67
2023/09/08 07:25:53;;;;;;;24.45;18.80;;;22.90;99.90;;;;;;5110892;28;20020;-67
2023/09/08 07:28:18;;;;;;;25.60;17.17;;;23.40;99.90;;;;;;5106264;28;20024;-68
2023/09/08 07:30:44;;;;;;;27.10;17.25;;;23.90;99.90;;;;;;5101046;28;20107;-68
2023/09/08 07:33:10;;;;;;;25.90;17.17;;;24.70;99.90;;;;;;5109559;28;20101;-67
2023/09/08 07:35:39;;;;;;;24.52;17.05;;;25.60;99.90;;;;;;5100675;28;20026;-66
2023/09/08 07:38:05;;;;;;;23.55;16.55;;;26.50;99.90;;;;;;5101435;28;20073;-66
2023/09/08 07:40:32;;;;;;;22.27;16.15;;;27.40;99.90;;;;;;5105466;28;20058;-66
2023/09/08 07:42:58;;;;;;;22.20;15.05;;;28.50;99.90;;;;;;5103840;28;20406;-67
2023/09/08 07:45:23;;;;;;;21.50;15.50;;;29.50;99.70;;;;;;5096697;28;20131;-67
2023/09/08 07:47:49;;;;;;;21.60;15.95;;;30.60;98.50;;;;;;5109142;28;20486;-67
2023/09/08 07:50:19;;;;;;;21.75;14.90;;;31.70;96.80;;;;;;5097588;28;20027;-67
2023/09/08 07:52:46;;;;;;;21.90;14.82;;;32.60;95.60;;;;;;5109256;28;20110;-67
2023/09/08 07:55:11;;;;;;;20.45;13.85;;;33.50;94.50;;;;;;5098354;28;20019;-67
2023/09/08 07:57:37;;;;;;;19.38;14.18;;;34.40;93.30;;;;;;5092382;28;20020;-67
2023/09/08 08:00:03;;;;;;;22.10;14.27;;;35.20;92.50;;;;;;5111122;28;20470;-68
2023/09/08 08:02:30;;;;;;;19.95;14.45;;;36.00;91.50;;;;;;5109113;28;20035;-68
2023/09/08 08:04:56;;;;;;;22.75;14.38;;;36.60;90.60;;;;;;5101307;28;20035;-68
2023/09/08 08:07:21;;;;;;;20.42;14.15;;;37.10;90.00;;;;;;5108910;28;20032;-70
2023/09/08 08:09:47;;;;;;;18.55;14.30;;;37.70;88.70;;;;;;5114484;28;20048;-68
2023/09/08 08:12:13;;;;;;;21.33;15.15;;;38.20;86.90;;;;;;5101159;28;20041;-68
2023/09/08 08:14:39;;;;;;;21.83;14.90;;;38.50;85.80;;;;;;5096333;28;20074;-69
2023/09/08 08:17:04;;;;;;;19.48;14.73;;;38.70;85.30;;;;;;5108655;28;20027;-68
2023/09/08 08:19:30;;;;;;;18.15;13.35;;;38.90;84.40;;;;;;5116042;28;20039;-67
2023/09/08 08:21:57;;;;;;;21.42;14.95;;;39.20;83.80;;;;;;5113589;28;20073;-67
2023/09/08 08:24:23;;;;;;;21.15;14.38;;;39.50;82.80;;;;;;5101400;28;20413;-67
2023/09/08 08:26:48;;;;;;;20.15;14.90;;;39.70;82.60;;;;;;5106012;28;20067;-69
2023/09/08 08:29:14;;;;;;;22.13;15.13;;;39.90;81.70;;;;;;5109862;28;20057;-68
2023/09/08 08:31:40;;;;;;;21.73;14.52;;;40.40;81.30;;;;;;5114644;28;20085;-68
2023/09/08 08:34:06;;;;;;;21.55;14.57;;;40.70;80.50;;;;;;5108545;28;20031;-70
2023/09/08 08:36:31;;;;;;;19.73;15.05;;;41.00;80.10;;;;;;5116801;28;20054;-68
2023/09/08 08:38:57;;;;;;;20.25;16.15;;;41.40;78.80;;;;;;5109170;28;20775;-67
2023/09/08 08:41:23;;;;;;;19.85;14.77;;;41.40;78.50;;;;;;5112149;28;20027;-68
2023/09/08 08:43:50;;;;;;;19.58;14.68;;;41.60;78.00;;;;;;5112732;28;20420;-68
2023/09/08 08:46:17;;;;;;;18.25;13.68;;;41.50;77.40;;;;;;5113632;28;20517;-68
2023/09/08 08:48:44;;;;;;;20.27;14.60;;;41.20;77.60;;;;;;5091392;28;20498;-68
2023/09/08 08:51:11;;;;;;;22.45;15.82;;;41.10;77.90;;;;;;5101263;28;20029;-69
2023/09/08 08:53:39;;;;;;;21.95;15.60;;;41.20;77.60;;;;;;5096126;28;20061;-69
2023/09/08 08:56:08;;;;;;;21.58;16.70;;;41.40;77.40;;;;;;5096035;28;20028;-69
2023/09/08 08:58:35;;;;;;;22.05;17.90;;;41.70;77.10;;;;;;5099836;28;20106;-69
2023/09/08 09:01:01;;;;;;;22.05;16.35;;;41.70;76.50;;;;;;5115668;28;20038;-68
2023/09/08 09:03:28;;;;;;;23.17;19.40;;;41.90;76.60;;;;;;5115866;28;20027;-67
2023/09/08 09:05:53;;;;;;;23.98;18.45;;;41.90;75.90;;;;;;5116556;28;20023;-69
2023/09/08 09:08:19;;;;;;;22.02;17.08;;;41.60;76.20;;;;;;5116327;28;20501;-67
2023/09/08 09:10:45;;;;;;;22.02;17.58;;;41.50;76.70;;;;;;5116340;28;20405;-68
2023/09/08 09:13:11;;;;;;;24.67;18.50;;;41.70;76.60;;;;;;5116063;28;20459;-67
2023/09/08 09:15:36;;;;;;;23.15;17.27;;;42.10;76.20;;;;;;5098500;28;20468;-68
2023/09/08 09:18:06;;;;;;;24.83;18.90;;;42.30;75.70;;;;;;5113448;28;20455;-67
2023/09/08 09:20:32;;;;;;;23.43;17.80;;;42.40;75.30;;;;;;5115462;28;20074;-68
2023/09/08 09:22:58;;;;;;;24.52;18.25;;;42.30;75.20;;;;;;5116258;28;20028;-67
2023/09/08 09:25:27;;;;;;;23.17;17.70;;;42.40;75.00;;;;;;5116155;28;20020;-67
2023/09/08 09:27:57;;;;;;;22.50;16.90;;;42.50;75.50;;;;;;5115615;28;20039;-67
2023/09/08 09:30:24;;;;;;;22.10;17.40;;;42.90;75.00;;;;;;5115626;28;20059;-68
2023/09/08 09:33:02;;;;;;;23.25;17.98;;;43.30;74.70;;;;;;5109530;28;20032;-68
2023/09/08 09:35:42;;;;;;;21.55;16.77;;;43.80;74.30;;;;;;5113925;28;20028;-68
2023/09/08 09:38:10;;;;;;;21.80;16.70;;;44.20;73.50;;;;;;5115090;28;20510;-67
2023/09/08 09:40:37;;;;;;;21.83;18.65;;;44.70;73.20;;;;;;5115656;28;20494;-68
2023/09/08 09:43:04;;;;;;;23.23;16.85;;;45.10;72.50;;;;;;5099040;28;20031;-67
2023/09/08 09:45:30;;;;;;;21.15;16.50;;;45.50;72.00;;;;;;5101481;28;20081;-69
2023/09/08 09:47:56;;;;;;;21.90;17.23;;;45.70;72.30;;;;;;5111481;28;20118;-68
2023/09/08 09:50:30;;;;;;;22.80;18.13;;;45.90;71.40;;;;;;5114585;28;20024;-66
2023/09/08 09:52:59;;;;;;;21.33;16.33;;;46.10;70.90;;;;;;5107770;28;20024;-69
2023/09/08 09:55:26;;;;;;;22.77;18.05;;;46.40;71.00;;;;;;5106281;28;20130;-68
2023/09/08 09:57:56;;;;;;;19.40;16.00;;;46.70;69.90;;;;;;5114519;28;20025;-70
2023/09/08 10:00:22;;;;;;;22.25;16.73;;;46.60;69.90;;;;;;5104265;28;20054;-69
2023/09/08 10:02:48;;;;;;;20.25;16.35;;;46.60;69.90;;;;;;5108322;28;20673;-67
2023/09/08 10:05:18;;;;;;;25.10;16.60;;;46.60;69.50;;;;;;5097864;28;20045;-67
2023/09/08 10:07:46;;;;;;;;;;;46.70;69.50;;;;;;5113455;28;20051;-69
2023/09/08 10:10:11;;;;;;;19.92;16.42;;;46.90;69.20;;;;;;5113539;28;20367;-67
2023/09/08 10:12:38;;;;;;;18.42;15.73;;;47.10;68.70;;;;;;5110444;28;20024;-67
2023/09/08 10:15:06;;;;;;;20.25;15.18;;;47.20;68.30;;;;;;5109951;28;20471;-67
2023/09/08 10:17:34;;;;;;;25.58;15.57;;;47.30;68.20;;;;;;5112775;28;20077;-68
2023/09/08 10:20:08;;;;;;;16.70;13.75;;;47.40;68.00;;;;;;5113607;28;20031;-67
2023/09/08 10:22:36;;;;;;;19.55;15.02;;;47.60;68.00;;;;;;5103995;28;20028;-69
2023/09/08 10:25:05;;;;;;;20.00;15.00;;;47.70;67.80;;;;;;5112435;28;20527;-66
2023/09/08 10:27:32;;;;;;;22.00;16.60;;;47.70;67.50;;;;;;5109192;28;20038;-69
2023/09/08 10:30:01;;;;;;;18.52;14.15;;;47.30;67.80;;;;;;5096765;28;20105;-69
2023/09/08 10:32:27;;;;;;;19.58;13.25;;;47.30;67.70;;;;;;5113031;28;20036;-68
2023/09/08 10:34:54;;;;;;;18.95;13.50;;;47.40;67.70;;;;;;5113929;28;20028;-68
2023/09/08 10:37:21;;;;;;;16.95;13.60;;;47.80;67.30;;;;;;5111711;28;20112;-70
2023/09/08 10:39:46;;;;;;;18.45;11.95;;;47.80;66.70;;;;;;5113533;28;20494;-69
2023/09/08 10:42:18;;;;;;;18.98;13.23;;;47.60;66.50;;;;;;5113119;28;20059;-68
2023/09/08 10:44:51;;;;;;;17.02;13.18;;;47.40;66.60;;;;;;5110644;28;20024;-68
2023/09/08 10:47:25;;;;;;;17.90;12.27;;;47.50;66.40;;;;;;5113550;28;20024;-68
2023/09/08 10:49:53;;;;;;;17.33;12.45;;;47.70;66.40;;;;;;5112359;28;20023;-69
2023/09/08 10:52:21;;;;;;;17.58;13.38;;;47.90;66.10;;;;;;5112587;28;20024;-68
2023/09/08 10:54:55;;;;;;;15.93;11.65;;;47.70;66.40;;;;;;5113955;28;20024;-68
2023/09/08 10:57:22;;;;;;;15.60;10.45;;;47.00;66.70;;;;;;5113563;28;20023;-67
2023/09/08 11:00:00;;;;;;;16.02;10.82;;;46.80;66.70;;;;;;5113141;28;20098;-70
2023/09/08 11:02:40;;;;;;;18.05;13.18;;;46.90;66.60;;;;;;5114467;28;20476;-68
2023/09/08 11:05:09;;;;;;;19.80;15.00;;;47.00;66.90;;;;;;5113897;28;20023;-68
2023/09/08 11:07:38;;;;;;;19.92;13.20;;;47.00;66.80;;;;;;5113041;28;20027;-68
2023/09/08 11:10:05;;;;;;;16.08;11.35;;;47.20;66.60;;;;;;5113133;28;20048;-68
2023/09/08 11:12:31;;;;;;;15.60;10.75;;;47.40;66.20;;;;;;5113706;28;20035;-68
2023/09/08 11:15:00;;;;;;;16.17;12.70;;;47.40;65.80;;;;;;5100610;28;20043;-68
2023/09/08 11:17:29;;;;;;;16.60;11.15;;;47.10;66.50;;;;;;5112654;28;20020;-68
2023/09/08 11:19:55;;;;;;;13.68;10.55;;;46.60;66.60;;;;;;5105569;28;20063;-69
2023/09/08 11:22:24;;;;;;;16.10;11.35;;;46.50;66.80;;;;;;5103188;28;20072;-68
2023/09/08 11:24:50;;;;;;;17.45;12.02;;;46.40;67.30;;;;;;5101130;28;20024;-68
2023/09/08 11:27:15;;;;;;;18.63;12.13;;;46.40;67.40;;;;;;5105124;28;20088;-67
2023/09/08 11:29:43;;;;;;;16.30;12.55;;;46.40;67.20;;;;;;5098732;28;20071;-70
2023/09/08 11:32:10;;;;;;;15.98;11.20;;;46.60;67.10;;;;;;5100276;28;20068;-68
2023/09/08 11:34:36;;;;;;;18.05;12.77;;;46.70;67.20;;;;;;5107463;28;20028;-68
2023/09/08 11:37:13;;;;;;;19.48;15.10;;;46.90;67.10;;;;;;5104176;28;20026;-68
2023/09/08 11:39:43;;;;;;;17.23;13.02;;;46.90;66.60;;;;;;5102529;28;20020;-68
2023/09/08 11:42:10;;;;;;;17.77;12.77;;;47.00;66.60;;;;;;5104674;28;20058;-68
2023/09/08 11:44:36;;;;;;;17.23;11.32;;;47.20;66.70;;;;;;5107258;28;20070;-68
2023/09/08 11:47:03;;;;;;;19.70;11.60;;;47.40;66.40;;;;;;5108428;28;20028;-69
2023/09/08 11:49:39;;;;;;;16.08;12.18;;;47.50;66.30;;;;;;5104225;28;20028;-68
2023/09/08 11:52:05;;;;;;;16.13;10.40;;;47.60;66.00;;;;;;5106875;28;20035;-68
2023/09/08 11:54:32;;;;;;;14.85;10.65;;;47.70;66.10;;;;;;5107843;28;20118;-70
2023/09/08 11:57:01;;;;;;;16.20;11.80;;;47.70;66.00;;;;;;5106907;28;20060;-68
2023/09/08 11:59:30;;;;;;;13.70;10.20;;;47.80;65.80;;;;;;5106904;28;20124;-68
2023/09/08 12:01:56;;;;;;;15.30;10.25;;;47.60;65.30;;;;;;5107092;28;20111;-68
2023/09/08 12:04:22;;;;;;;13.05;9.63;;;47.10;65.30;;;;;;5108074;28;20532;-70
2023/09/08 12:06:52;;;;;;;13.02;9.30;;;46.50;66.10;;;;;;5105242;28;20024;-69
2023/09/08 12:09:20;;;;;;;14.98;9.95;;;46.40;66.30;;;;;;5108618;28;20055;-69
2023/09/08 12:11:46;;;;;;;12.82;9.20;;;46.60;66.00;;;;;;5105819;28;20027;-67
2023/09/08 12:14:13;;;;;;;13.60;8.75;;;46.50;65.80;;;;;;5106488;28;20018;-69
2023/09/08 12:16:40;;;;;;;10.10;7.72;;;46.60;65.80;;;;;;5106951;28;20034;-68
2023/09/08 12:19:06;;;;;;;12.40;8.02;;;46.10;65.50;;;;;;5107932;28;20028;-68
2023/09/08 12:21:35;;;;;;;12.77;7.63;;;46.00;65.40;;;;;;5107660;28;20024;-69
2023/09/08 12:24:00;;;;;;;11.48;7.60;;;46.00;65.50;;;;;;5108481;28;20536;-69
2023/09/08 12:26:26;;;;;;;12.93;8.27;;;46.00;65.40;;;;;;5105710;28;20036;-68